createdAt,value
2022-09-16T00:00:57.388Z,4.55
2022-09-16T00:02:12.899Z,4.27
2022-09-16T00:03:17.794Z,5.14
2022-09-16T00:04:19.670Z,4.87
2022-09-16T00:05:22.088Z,4.81
2022-09-16T00:06:27.423Z,5.11
2022-09-16T00:07:30.333Z,4.78
2022-09-16T00:08:32.265Z,5.08
2022-09-16T00:09:34.163Z,5.17
2022-09-16T00:10:36.157Z,4.53
2022-09-16T00:11:37.871Z,4.63
2022-09-16T00:12:40.592Z,4.85
2022-09-16T00:13:42.342Z,4.33
2022-09-16T00:14:44.129Z,4.89
2022-09-16T00:15:49.182Z,4.63
2022-09-16T00:16:50.852Z,5.06
2022-09-16T00:17:52.613Z,5.24
2022-09-16T00:18:59.873Z,5.29
2022-09-16T00:20:01.905Z,4.90
2022-09-16T00:21:09.225Z,4.93
2022-09-16T00:22:10.989Z,4.86
2022-09-16T00:23:12.683Z,4.64
2022-09-16T00:24:16.314Z,5.25
2022-09-16T00:25:18.204Z,5.18
2022-09-16T00:26:20.062Z,4.87
2022-09-16T00:27:21.751Z,4.51
2022-09-16T00:28:24.736Z,4.12
2022-09-16T00:29:26.577Z,4.67
2022-09-16T00:30:28.207Z,5.00
2022-09-16T00:31:29.950Z,4.88
2022-09-16T00:32:31.869Z,4.95
2022-09-16T00:33:33.552Z,4.65
2022-09-16T00:34:35.252Z,4.41
2022-09-16T00:35:36.886Z,4.67
2022-09-16T00:36:38.523Z,4.70
2022-09-16T00:37:40.145Z,4.61
2022-09-16T00:38:42.625Z,4.80
2022-09-16T00:39:44.564Z,4.36
2022-09-16T00:40:49.587Z,4.43
2022-09-16T00:41:51.407Z,4.93
2022-09-16T00:42:53.081Z,5.10
2022-09-16T00:44:01.893Z,4.97
2022-09-16T00:45:14.153Z,4.86
2022-09-16T00:46:20.659Z,4.48
2022-09-16T00:47:47.334Z,4.56
2022-09-16T00:48:50.317Z,4.53
2022-09-16T00:49:59.384Z,4.38
2022-09-16T00:51:08.028Z,5.28
2022-09-16T00:52:10.391Z,4.56
2022-09-16T00:53:23.120Z,4.68
2022-09-16T00:54:26.857Z,4.18
2022-09-16T00:55:35.465Z,3.92
2022-09-16T00:56:43.290Z,4.41
2022-09-16T00:57:46.708Z,4.40
2022-09-16T00:58:55.227Z,4.50
2022-09-16T00:59:58.503Z,3.95
2022-09-16T01:01:01.112Z,4.41
2022-09-16T01:02:15.981Z,4.62
2022-09-16T01:03:18.974Z,4.48
2022-09-16T01:04:35.310Z,5.05
2022-09-16T01:05:38.749Z,5.21
2022-09-16T01:06:40.815Z,4.78
2022-09-16T01:07:45.959Z,4.94
2022-09-16T01:08:50.134Z,4.58
2022-09-16T01:09:51.795Z,4.67
2022-09-16T01:10:53.568Z,4.65
2022-09-16T01:11:55.283Z,4.83
2022-09-16T01:13:03.454Z,4.43
2022-09-16T01:14:25.167Z,4.54
2022-09-16T01:15:33.982Z,5.23
2022-09-16T01:16:45.049Z,4.54
2022-09-16T01:18:05.210Z,4.73
2022-09-16T01:19:20.824Z,4.70
2022-09-16T01:21:01.887Z,4.54
2022-09-16T01:22:20.724Z,5.08
2022-09-16T01:23:37.188Z,4.92
2022-09-16T01:24:54.457Z,4.60
2022-09-16T01:26:28.993Z,4.65
2022-09-16T01:28:07.691Z,4.40
2022-09-16T01:29:35.878Z,4.74
2022-09-16T01:30:41.090Z,4.53
2022-09-16T01:32:13.087Z,4.52
2022-09-16T01:33:31.603Z,4.91
2022-09-16T01:35:04.752Z,4.44
2022-09-16T01:36:15.410Z,4.65
2022-09-16T01:37:46.102Z,4.77
2022-09-16T01:39:03.233Z,4.98
2022-09-16T01:40:20.149Z,5.26
2022-09-16T01:42:09.579Z,5.42
2022-09-16T01:43:13.818Z,4.96
2022-09-16T01:44:28.926Z,4.84
2022-09-16T01:45:38.252Z,4.90
2022-09-16T01:46:48.357Z,4.89
2022-09-16T01:48:05.527Z,4.62
2022-09-16T01:49:20.375Z,4.67
2022-09-16T01:50:29.387Z,4.94
2022-09-16T01:51:49.602Z,4.77
2022-09-16T01:53:00.115Z,4.59
2022-09-16T01:54:15.921Z,4.55
2022-09-16T01:55:32.583Z,5.24
2022-09-16T01:56:50.305Z,4.55
2022-09-16T01:58:16.963Z,4.72
2022-09-16T01:59:41.543Z,5.02
2022-09-16T02:00:47.442Z,4.77
2022-09-16T02:02:04.954Z,4.48
2022-09-16T02:03:32.338Z,4.64
2022-09-16T02:04:42.613Z,5.16
2022-09-16T02:06:06.691Z,4.79
2022-09-16T02:07:12.980Z,4.72
2022-09-16T02:08:22.719Z,4.68
2022-09-16T02:09:34.898Z,4.60
2022-09-16T02:10:50.968Z,4.78
2022-09-16T02:11:58.551Z,4.13
2022-09-16T02:13:08.924Z,4.36
2022-09-16T02:14:20.030Z,4.73
2022-09-16T02:15:26.449Z,4.50
2022-09-16T02:16:55.095Z,4.65
2022-09-16T02:18:05.129Z,4.61
2022-09-16T02:19:15.720Z,4.61
2022-09-16T02:20:25.837Z,4.89
2022-09-16T02:21:33.382Z,4.39
2022-09-16T02:22:41.728Z,4.87
2022-09-16T02:23:59.519Z,4.40
2022-09-16T02:25:05.395Z,4.60
2022-09-16T02:26:12.479Z,4.66
2022-09-16T02:27:21.699Z,4.64
2022-09-16T02:28:30.100Z,4.52
2022-09-16T02:29:46.768Z,3.73
2022-09-16T02:30:55.465Z,3.87
2022-09-16T02:32:02.505Z,4.01
2022-09-16T02:33:09.699Z,4.41
2022-09-16T02:34:17.559Z,4.30
2022-09-16T02:35:22.028Z,4.28
2022-09-16T02:36:27.173Z,4.43
2022-09-16T02:37:50.235Z,3.87
2022-09-16T02:39:00.122Z,4.49
2022-09-16T02:40:10.542Z,4.58
2022-09-16T02:41:14.873Z,4.50
2022-09-16T02:42:17.521Z,4.96
2022-09-16T02:43:19.889Z,4.42
2022-09-16T02:44:21.766Z,4.94
2022-09-16T02:45:47.940Z,4.22
2022-09-16T02:47:04.530Z,4.32
2022-09-16T02:48:29.161Z,4.33
2022-09-16T02:49:54.111Z,4.25
2022-09-16T02:51:29.130Z,4.43
2022-09-16T02:52:47.043Z,4.30
2022-09-16T02:54:22.911Z,4.20
2022-09-16T02:55:54.805Z,4.44
2022-09-16T02:56:57.482Z,4.35
2022-09-16T02:57:59.338Z,4.32
2022-09-16T02:59:04.014Z,4.00
2022-09-16T03:00:06.900Z,4.49
2022-09-16T03:01:13.666Z,4.51
2022-09-16T03:02:15.452Z,4.67
2022-09-16T03:03:18.421Z,4.10
2022-09-16T03:04:20.547Z,3.92
2022-09-16T03:05:30.287Z,4.29
2022-09-16T03:06:36.053Z,3.88
2022-09-16T03:07:41.396Z,4.16
2022-09-16T03:08:45.247Z,4.31
2022-09-16T03:09:49.912Z,4.38
2022-09-16T03:10:53.880Z,4.48
2022-09-16T03:12:12.394Z,4.25
2022-09-16T03:13:36.524Z,3.84
2022-09-16T03:14:59.453Z,4.47
2022-09-16T03:16:17.338Z,4.01
2022-09-16T03:17:34.367Z,4.09
2022-09-16T03:18:58.354Z,4.14
2022-09-16T03:20:12.550Z,4.00
2022-09-16T03:21:23.069Z,3.79
2022-09-16T03:22:47.438Z,4.16
2022-09-16T03:23:56.272Z,3.91
2022-09-16T03:25:19.431Z,4.25
2022-09-16T03:26:43.202Z,4.22
2022-09-16T03:27:52.703Z,4.31
2022-09-16T03:29:12.557Z,4.08
2022-09-16T03:30:14.407Z,4.18
2022-09-16T03:31:28.899Z,4.32
2022-09-16T03:32:45.202Z,4.29
2022-09-16T03:34:07.853Z,4.21
2022-09-16T03:35:28.031Z,4.18
2022-09-16T03:36:44.563Z,4.56
2022-09-16T03:37:48.217Z,3.97
2022-09-16T03:38:51.565Z,3.89
2022-09-16T03:39:57.663Z,3.80
2022-09-16T03:40:59.474Z,4.14
2022-09-16T03:42:08.124Z,3.93
2022-09-16T03:43:15.998Z,3.81
2022-09-16T03:44:18.329Z,3.68
2022-09-16T03:45:22.079Z,4.08
2022-09-16T03:46:25.219Z,4.36
2022-09-16T03:47:26.868Z,4.13
2022-09-16T03:48:28.548Z,4.02
2022-09-16T03:49:30.469Z,4.01
2022-09-16T03:50:32.161Z,3.88
2022-09-16T03:51:33.809Z,4.02
2022-09-16T03:52:35.482Z,3.73
2022-09-16T03:53:37.085Z,4.19
2022-09-16T03:54:39.087Z,3.97
2022-09-16T03:55:40.829Z,3.59
2022-09-16T03:56:42.422Z,3.54
2022-09-16T03:57:44.073Z,3.65
2022-09-16T03:58:48.136Z,3.60
2022-09-16T03:59:49.765Z,3.89
2022-09-16T04:00:51.959Z,4.20
2022-09-16T04:01:54.039Z,3.42
2022-09-16T04:02:56.306Z,3.55
2022-09-16T04:03:57.963Z,3.32
2022-09-16T04:04:59.797Z,3.45
2022-09-16T04:06:01.634Z,3.49
2022-09-16T04:07:03.530Z,3.49
2022-09-16T04:08:05.128Z,3.28
2022-09-16T04:09:08.320Z,3.70
2022-09-16T04:10:12.455Z,3.81
2022-09-16T04:11:14.323Z,3.76
2022-09-16T04:12:16.031Z,3.71
2022-09-16T04:13:17.639Z,3.66
2022-09-16T04:14:20.285Z,3.95
2022-09-16T04:15:22.246Z,3.63
2022-09-16T04:16:24.099Z,3.76
2022-09-16T04:17:25.790Z,3.42
2022-09-16T04:18:27.905Z,3.69
2022-09-16T04:19:29.621Z,3.53
2022-09-16T04:20:31.234Z,3.84
2022-09-16T04:21:33.509Z,3.57
2022-09-16T04:22:35.263Z,3.59
2022-09-16T04:23:36.886Z,3.61
2022-09-16T04:24:38.495Z,3.41
2022-09-16T04:25:41.760Z,3.50
2022-09-16T04:26:43.762Z,3.76
2022-09-16T04:27:45.341Z,3.44
2022-09-16T04:28:47.994Z,3.53
2022-09-16T04:29:49.866Z,3.78
2022-09-16T04:30:52.167Z,3.79
2022-09-16T04:31:55.880Z,3.33
2022-09-16T04:32:57.535Z,3.47
2022-09-16T04:34:02.150Z,3.75
2022-09-16T04:35:03.935Z,3.52
2022-09-16T04:36:13.854Z,3.43
2022-09-16T04:37:15.767Z,3.84
2022-09-16T04:38:17.394Z,3.97
2022-09-16T04:39:19.367Z,3.44
2022-09-16T04:40:21.063Z,3.62
2022-09-16T04:41:27.098Z,3.52
2022-09-16T04:42:29.015Z,3.42
2022-09-16T04:43:31.121Z,3.39
2022-09-16T04:44:32.771Z,3.70
2022-09-16T04:45:34.363Z,3.62
2022-09-16T04:46:36.082Z,3.36
2022-09-16T04:47:37.807Z,3.27
2022-09-16T04:48:39.659Z,3.37
2022-09-16T04:49:41.338Z,3.08
2022-09-16T04:50:43.071Z,3.62
2022-09-16T04:51:44.698Z,3.13
2022-09-16T04:52:46.457Z,3.92
2022-09-16T04:53:49.501Z,3.52
2022-09-16T04:54:51.211Z,3.57
2022-09-16T04:55:52.854Z,3.65
2022-09-16T04:56:54.498Z,4.20
2022-09-16T04:57:56.190Z,3.67
2022-09-16T04:59:03.590Z,3.63
2022-09-16T05:00:05.879Z,3.97
2022-09-16T05:01:12.821Z,3.15
2022-09-16T05:02:14.551Z,3.40
2022-09-16T05:03:16.871Z,4.43
2022-09-16T05:04:18.661Z,3.71
2022-09-16T05:05:21.452Z,3.76
2022-09-16T05:06:26.282Z,3.40
2022-09-16T05:07:29.649Z,3.53
2022-09-16T05:08:33.148Z,3.46
2022-09-16T05:09:35.394Z,3.61
2022-09-16T05:10:37.002Z,3.69
2022-09-16T05:11:40.177Z,4.09
2022-09-16T05:12:41.789Z,3.35
2022-09-16T05:13:43.991Z,3.52
2022-09-16T05:14:45.586Z,3.85
2022-09-16T05:15:50.946Z,3.57
2022-09-16T05:16:53.799Z,3.63
2022-09-16T05:17:55.456Z,3.79
2022-09-16T05:19:00.166Z,3.70
2022-09-16T05:20:02.112Z,3.51
2022-09-16T05:21:06.666Z,3.39
2022-09-16T05:22:08.293Z,3.13
2022-09-16T05:23:10.062Z,3.02
2022-09-16T05:24:13.610Z,3.44
2022-09-16T05:25:15.352Z,3.22
2022-09-16T05:26:23.273Z,3.12
2022-09-16T05:27:27.940Z,3.23
2022-09-16T05:28:29.854Z,3.03
2022-09-16T05:29:31.472Z,3.18
2022-09-16T05:30:33.536Z,2.79
2022-09-16T05:31:38.962Z,3.49
2022-09-16T05:32:40.611Z,3.17
2022-09-16T05:33:44.901Z,2.92
2022-09-16T05:34:46.678Z,3.08
2022-09-16T05:35:48.401Z,3.20
2022-09-16T05:36:53.823Z,2.93
2022-09-16T05:37:55.459Z,3.16
2022-09-16T05:39:22.051Z,3.17
2022-09-16T05:40:19.823Z,2.72
2022-09-16T05:41:21.523Z,2.82
2022-09-16T05:42:23.303Z,2.94
2022-09-16T05:43:25.089Z,2.86
2022-09-16T05:44:28.751Z,3.06
2022-09-16T05:45:32.574Z,2.89
2022-09-16T05:46:35.036Z,2.98
2022-09-16T05:47:36.696Z,3.09
2022-09-16T05:48:38.278Z,2.89
2022-09-16T05:49:39.946Z,2.87
2022-09-16T05:50:41.601Z,2.93
2022-09-16T05:51:43.311Z,3.21
2022-09-16T05:52:44.943Z,3.09
2022-09-16T05:53:49.052Z,2.86
2022-09-16T05:54:51.083Z,2.90
2022-09-16T05:56:06.117Z,3.08
2022-09-16T05:57:07.714Z,2.73
2022-09-16T05:58:09.423Z,3.40
2022-09-16T05:59:12.482Z,3.02
2022-09-16T06:00:14.703Z,2.92
2022-09-16T06:01:19.567Z,2.98
2022-09-16T06:02:21.206Z,3.19
2022-09-16T06:03:22.865Z,2.74
2022-09-16T06:04:24.535Z,3.14
2022-09-16T06:05:26.144Z,3.21
2022-09-16T06:06:34.437Z,3.17
2022-09-16T06:07:36.037Z,3.03
2022-09-16T06:08:37.778Z,2.97
2022-09-16T06:09:39.370Z,3.51
2022-09-16T06:10:42.109Z,3.23
2022-09-16T06:11:47.375Z,3.34
2022-09-16T06:12:49.000Z,3.43
2022-09-16T06:13:56.137Z,3.63
2022-09-16T06:14:57.783Z,3.38
2022-09-16T06:16:00.570Z,2.91
2022-09-16T06:17:02.753Z,3.19
2022-09-16T06:18:06.543Z,3.17
2022-09-16T06:19:13.550Z,3.30
2022-09-16T06:20:16.137Z,3.27
2022-09-16T06:21:18.721Z,3.08
2022-09-16T06:22:20.334Z,3.40
2022-09-16T06:23:22.689Z,3.37
2022-09-16T06:24:24.439Z,3.49
2022-09-16T06:25:26.055Z,3.03
2022-09-16T06:26:28.450Z,2.89
2022-09-16T06:27:31.840Z,3.24
2022-09-16T06:28:33.953Z,3.09
2022-09-16T06:29:35.600Z,2.79
2022-09-16T06:30:38.279Z,2.81
2022-09-16T06:31:40.579Z,3.20
2022-09-16T06:32:42.241Z,2.81
2022-09-16T06:33:44.593Z,2.82
2022-09-16T06:34:46.511Z,2.70
2022-09-16T06:35:48.166Z,2.66
2022-09-16T06:36:49.967Z,2.80
2022-09-16T06:37:54.041Z,2.67
2022-09-16T06:38:55.876Z,2.97
2022-09-16T06:39:57.549Z,2.56
2022-09-16T06:41:00.930Z,2.69
2022-09-16T06:42:02.814Z,2.71
2022-09-16T06:43:12.206Z,2.51
2022-09-16T06:44:13.972Z,3.34
2022-09-16T06:45:15.577Z,3.52
2022-09-16T06:46:21.064Z,3.09
2022-09-16T06:47:22.788Z,3.70
2022-09-16T06:48:24.417Z,5.67
2022-09-16T06:49:26.375Z,3.49
2022-09-16T06:50:28.075Z,3.07
2022-09-16T06:51:31.387Z,3.05
2022-09-16T06:52:33.190Z,4.33
2022-09-16T06:53:34.935Z,4.80
2022-09-16T06:54:36.526Z,4.01
2022-09-16T06:55:38.166Z,3.10
2022-09-16T06:56:41.477Z,2.50
2022-09-16T06:57:43.427Z,2.41
2022-09-16T06:58:51.761Z,2.54
2022-09-16T06:59:53.410Z,2.47
2022-09-16T07:00:55.709Z,2.52
2022-09-16T07:01:57.469Z,2.48
2022-09-16T07:03:02.266Z,2.53
2022-09-16T07:04:10.961Z,2.59
2022-09-16T07:05:13.075Z,2.51
2022-09-16T07:06:16.680Z,2.52
2022-09-16T07:07:18.510Z,2.55
2022-09-16T07:08:20.182Z,3.02
2022-09-16T07:09:22.279Z,2.35
2022-09-16T07:10:25.224Z,2.73
2022-09-16T07:11:26.973Z,2.46
2022-09-16T07:12:28.993Z,2.55
2022-09-16T07:13:31.318Z,2.93
2022-09-16T07:14:32.943Z,2.68
2022-09-16T07:15:39.253Z,2.52
2022-09-16T07:16:52.803Z,2.45
2022-09-16T07:17:55.347Z,2.76
2022-09-16T07:19:01.136Z,2.93
2022-09-16T07:20:03.373Z,2.82
2022-09-16T07:21:07.790Z,2.90
2022-09-16T07:22:11.420Z,2.58
2022-09-16T07:23:13.038Z,2.47
2022-09-16T07:24:15.431Z,2.49
2022-09-16T07:25:17.315Z,2.15
2022-09-16T07:26:22.124Z,2.21
2022-09-16T07:27:23.794Z,2.57
2022-09-16T07:28:25.463Z,2.30
2022-09-16T07:29:27.581Z,2.19
2022-09-16T07:30:30.983Z,2.58
2022-09-16T07:31:36.988Z,2.31
2022-09-16T07:32:38.615Z,2.46
2022-09-16T07:33:47.672Z,2.63
2022-09-16T07:34:49.379Z,2.40
2022-09-16T07:35:51.211Z,2.23
2022-09-16T07:36:52.909Z,2.58
2022-09-16T07:37:54.850Z,2.21
2022-09-16T07:38:58.914Z,2.27
2022-09-16T07:40:00.583Z,2.34
2022-09-16T07:41:07.865Z,2.35
2022-09-16T07:42:09.764Z,2.70
2022-09-16T07:43:11.926Z,2.40
2022-09-16T07:44:16.313Z,2.45
2022-09-16T07:45:17.962Z,2.59
2022-09-16T07:46:20.818Z,2.65
2022-09-16T07:47:23.083Z,2.60
2022-09-16T07:48:25.242Z,2.44
2022-09-16T07:49:26.979Z,2.57
2022-09-16T07:50:28.627Z,2.47
2022-09-16T07:51:31.618Z,2.22
2022-09-16T07:52:33.241Z,2.14
2022-09-16T07:53:35.446Z,2.41
2022-09-16T07:54:37.352Z,2.34
2022-09-16T07:55:39.033Z,2.03
2022-09-16T07:56:42.551Z,2.53
2022-09-16T07:57:44.187Z,2.42
2022-09-16T07:58:47.469Z,2.39
2022-09-16T07:59:49.186Z,2.21
2022-09-16T08:00:50.893Z,2.59
2022-09-16T08:01:52.876Z,2.45
2022-09-16T08:02:57.248Z,2.58
2022-09-16T08:04:00.475Z,2.60
2022-09-16T08:05:02.200Z,2.47
2022-09-16T08:06:25.126Z,2.69
2022-09-16T08:07:26.817Z,2.15
2022-09-16T08:08:28.455Z,2.15
2022-09-16T08:09:41.163Z,2.19
2022-09-16T08:10:59.483Z,2.27
2022-09-16T08:12:04.550Z,2.49
2022-09-16T08:13:07.810Z,2.53
2022-09-16T08:14:09.403Z,2.93
2022-09-16T08:15:11.265Z,2.55
2022-09-16T08:16:19.379Z,2.25
2022-09-16T08:17:21.513Z,2.12
2022-09-16T08:18:23.130Z,2.39
2022-09-16T08:19:25.038Z,2.26
2022-09-16T08:20:28.220Z,2.60
2022-09-16T08:21:30.216Z,2.07
2022-09-16T08:22:32.025Z,2.49
2022-09-16T08:23:34.946Z,2.19
2022-09-16T08:24:36.662Z,2.50
2022-09-16T08:25:38.289Z,2.39
2022-09-16T08:26:40.386Z,2.31
2022-09-16T08:27:42.025Z,2.61
2022-09-16T08:29:04.931Z,3.01
2022-09-16T08:30:10.218Z,2.85
2022-09-16T08:31:12.661Z,2.32
2022-09-16T08:32:14.693Z,3.47
2022-09-16T08:33:20.998Z,4.28
2022-09-16T08:34:22.769Z,3.40
2022-09-16T08:35:25.598Z,3.22
2022-09-16T08:36:27.447Z,2.90
2022-09-16T08:37:29.128Z,2.78
2022-09-16T08:38:32.513Z,2.25
2022-09-16T08:39:34.477Z,2.29
2022-09-16T08:40:37.216Z,2.39
2022-09-16T08:41:52.607Z,2.68
2022-09-16T08:43:17.791Z,2.49
2022-09-16T08:44:38.816Z,3.17
2022-09-16T08:45:49.158Z,2.92
2022-09-16T08:46:59.477Z,2.99
2022-09-16T08:48:13.150Z,2.55
2022-09-16T08:49:44.024Z,2.47
2022-09-16T08:50:51.462Z,2.53
2022-09-16T08:51:55.562Z,2.73
2022-09-16T08:53:03.148Z,2.75
2022-09-16T08:54:27.349Z,2.39
2022-09-16T08:55:46.707Z,2.50
2022-09-16T08:56:49.737Z,2.52
2022-09-16T08:58:11.613Z,2.24
2022-09-16T08:59:20.402Z,2.66
2022-09-16T09:00:22.117Z,2.28
2022-09-16T09:01:29.895Z,1.99
2022-09-16T09:02:51.204Z,2.51
2022-09-16T09:03:54.208Z,2.15
2022-09-16T09:04:56.051Z,2.22
2022-09-16T09:06:00.154Z,2.41
2022-09-16T09:07:29.066Z,2.65
2022-09-16T09:08:44.409Z,2.68
2022-09-16T09:10:24.752Z,2.61
2022-09-16T09:11:43.726Z,2.59
2022-09-16T09:13:47.543Z,2.40
2022-09-16T09:15:11.946Z,2.50
2022-09-16T09:16:41.085Z,2.82
2022-09-16T09:18:00.501Z,2.76
2022-09-16T09:19:25.690Z,2.56
2022-09-16T09:20:30.045Z,2.30
2022-09-16T09:22:00.250Z,2.90
2022-09-16T09:23:29.759Z,2.45
2022-09-16T09:24:48.314Z,2.31
2022-09-16T09:26:03.777Z,2.33
2022-09-16T09:27:22.225Z,2.41
2022-09-16T09:29:01.054Z,2.72
2022-09-16T09:30:24.345Z,2.80
2022-09-16T09:31:34.838Z,3.16
2022-09-16T09:32:56.548Z,3.12
2022-09-16T09:34:29.232Z,2.78
2022-09-16T09:35:51.428Z,2.73
2022-09-16T09:37:05.867Z,3.20
2022-09-16T09:38:35.984Z,3.39
2022-09-16T09:39:54.052Z,2.79
2022-09-16T09:41:11.709Z,2.41
2022-09-16T09:42:29.637Z,2.46
2022-09-16T09:44:52.158Z,2.76
2022-09-16T09:46:04.725Z,2.32
2022-09-16T09:47:19.984Z,2.56
2022-09-16T09:48:45.174Z,2.48
2022-09-16T09:49:51.881Z,2.42
2022-09-16T09:50:53.885Z,2.54
2022-09-16T09:52:04.373Z,2.68
2022-09-16T09:53:12.263Z,2.64
2022-09-16T09:54:22.797Z,2.39
2022-09-16T09:55:31.482Z,1.99
2022-09-16T09:56:45.988Z,2.08
2022-09-16T09:58:05.185Z,2.17
2022-09-16T09:59:24.932Z,2.23
2022-09-16T10:00:26.684Z,2.08
2022-09-16T10:01:28.556Z,2.57
2022-09-16T10:02:30.345Z,2.30
2022-09-16T10:03:32.531Z,2.39
2022-09-16T10:04:39.194Z,2.53
2022-09-16T10:05:41.685Z,2.41
2022-09-16T10:06:46.098Z,2.49
2022-09-16T10:07:49.566Z,2.11
2022-09-16T10:08:54.156Z,2.09
2022-09-16T10:10:14.382Z,2.07
2022-09-16T10:11:22.954Z,2.10
2022-09-16T10:12:31.355Z,2.16
2022-09-16T10:13:33.169Z,2.10
2022-09-16T10:14:37.917Z,1.95
2022-09-16T10:15:40.599Z,2.06
2022-09-16T10:16:50.809Z,2.19
2022-09-16T10:17:53.867Z,2.12
2022-09-16T10:19:16.981Z,1.95
2022-09-16T10:20:35.062Z,2.36
2022-09-16T10:21:47.705Z,2.17
2022-09-16T10:23:20.509Z,2.06
2022-09-16T10:24:32.969Z,2.02
2022-09-16T10:25:35.384Z,2.36
2022-09-16T10:26:41.142Z,2.05
2022-09-16T10:27:42.820Z,2.02
2022-09-16T10:29:23.262Z,2.27
2022-09-16T10:30:25.468Z,2.40
2022-09-16T10:31:35.327Z,2.32
2022-09-16T10:32:48.391Z,2.00
2022-09-16T10:33:50.403Z,1.99
2022-09-16T10:34:52.443Z,2.14
2022-09-16T10:36:00.809Z,1.72
2022-09-16T10:37:12.799Z,1.82
2022-09-16T10:38:22.260Z,1.60
2022-09-16T10:39:26.774Z,2.05
2022-09-16T10:40:29.171Z,1.73
2022-09-16T10:41:42.395Z,2.04
2022-09-16T10:42:48.107Z,2.53
2022-09-16T10:44:07.322Z,2.07
2022-09-16T10:45:20.158Z,2.14
2022-09-16T10:46:22.078Z,2.52
2022-09-16T10:47:28.203Z,2.45
2022-09-16T10:48:34.324Z,2.18
2022-09-16T10:49:46.187Z,2.29
2022-09-16T10:50:58.618Z,2.03
2022-09-16T10:52:22.939Z,2.26
2022-09-16T10:53:30.757Z,2.20
2022-09-16T10:54:32.461Z,2.19
2022-09-16T10:55:38.672Z,2.15
2022-09-16T10:56:49.601Z,2.02
2022-09-16T10:57:53.196Z,2.09
2022-09-16T10:59:12.325Z,2.26
2022-09-16T11:00:21.331Z,2.59
2022-09-16T11:01:57.917Z,2.23
2022-09-16T11:03:15.044Z,1.99
2022-09-16T11:04:31.419Z,1.95
2022-09-16T11:05:47.829Z,1.88
2022-09-16T11:06:55.224Z,1.78
2022-09-16T11:08:08.666Z,1.88
2022-09-16T11:09:25.595Z,2.21
2022-09-16T11:10:56.057Z,2.07
2022-09-16T11:12:33.600Z,1.87
2022-09-16T11:13:58.044Z,1.65
2022-09-16T11:15:28.053Z,1.70
2022-09-16T11:16:29.716Z,1.61
2022-09-16T11:18:19.897Z,1.73
2022-09-16T11:20:03.750Z,2.19
2022-09-16T11:21:40.600Z,1.79
2022-09-16T11:23:16.321Z,1.99
2022-09-16T11:24:27.266Z,2.14
2022-09-16T11:25:38.412Z,1.96
2022-09-16T11:26:56.193Z,2.40
2022-09-16T11:28:00.805Z,2.48
2022-09-16T11:29:29.139Z,2.31
2022-09-16T11:30:40.925Z,2.24
2022-09-16T11:31:51.355Z,2.28
2022-09-16T11:33:37.438Z,2.30
2022-09-16T11:35:02.560Z,2.13
2022-09-16T11:36:54.910Z,2.10
2022-09-16T11:38:08.319Z,2.11
2022-09-16T11:39:27.971Z,2.03
2022-09-16T11:40:55.139Z,2.12
2022-09-16T11:42:04.810Z,2.37
2022-09-16T11:43:47.720Z,1.93
2022-09-16T11:45:19.946Z,1.98
2022-09-16T11:46:55.713Z,1.88
2022-09-16T11:48:15.710Z,1.95
2022-09-16T11:49:45.127Z,1.80
2022-09-16T11:50:58.282Z,1.92
2022-09-16T11:52:06.309Z,1.76
2022-09-16T11:53:29.586Z,1.76
2022-09-16T11:54:59.113Z,1.70
2022-09-16T11:56:11.407Z,1.66
2022-09-16T11:57:24.774Z,1.68
2022-09-16T11:58:45.295Z,1.73
2022-09-16T12:00:00.328Z,2.02
2022-09-16T12:01:14.123Z,1.63
2022-09-16T12:02:40.088Z,1.82
2022-09-16T12:03:58.701Z,1.82
2022-09-16T12:05:13.823Z,1.75
2022-09-16T12:06:20.558Z,1.74
2022-09-16T12:07:57.245Z,1.72
2022-09-16T12:09:12.358Z,1.72
2022-09-16T12:10:31.117Z,1.94
2022-09-16T12:11:45.849Z,2.07
2022-09-16T12:13:00.766Z,2.09
2022-09-16T12:14:18.823Z,2.19
2022-09-16T12:15:30.078Z,2.09
2022-09-16T12:16:39.510Z,2.40
2022-09-16T12:17:52.438Z,2.26
2022-09-16T12:19:02.182Z,2.21
2022-09-16T12:20:16.533Z,2.09
2022-09-16T12:21:30.037Z,2.06
2022-09-16T12:22:43.201Z,2.42
2022-09-16T12:23:59.616Z,2.07
2022-09-16T12:25:08.913Z,2.14
2022-09-16T12:26:17.889Z,1.99
2022-09-16T12:27:37.750Z,2.02
2022-09-16T12:28:46.274Z,2.12
2022-09-16T12:30:00.509Z,2.22
2022-09-16T12:31:23.777Z,2.10
2022-09-16T12:32:50.706Z,2.14
2022-09-16T12:34:18.509Z,1.85
2022-09-16T12:36:43.868Z,1.68
2022-09-16T12:37:51.501Z,2.04
2022-09-16T12:38:53.298Z,1.74
2022-09-16T12:39:55.408Z,2.13
2022-09-16T12:41:00.519Z,1.66
2022-09-16T12:42:12.444Z,1.88
2022-09-16T12:43:31.982Z,2.02
2022-09-16T12:45:08.206Z,1.41
2022-09-16T12:46:34.801Z,1.66
2022-09-16T12:47:52.073Z,1.61
2022-09-16T12:49:15.455Z,1.44
2022-09-16T12:50:27.816Z,1.61
2022-09-16T12:52:04.010Z,1.50
2022-09-16T12:53:32.453Z,1.47
2022-09-16T12:55:08.508Z,1.45
2022-09-16T12:56:29.523Z,1.49
2022-09-16T12:57:55.991Z,1.80
2022-09-16T12:59:22.009Z,1.55
2022-09-16T13:00:30.941Z,1.63
2022-09-16T13:01:35.408Z,1.61
2022-09-16T13:02:46.722Z,1.82
2022-09-16T13:04:03.316Z,1.67
2022-09-16T13:05:22.853Z,1.42
2022-09-16T13:06:34.356Z,1.73
2022-09-16T13:07:36.933Z,1.80
2022-09-16T13:08:38.782Z,1.86
2022-09-16T13:09:41.018Z,1.95
2022-09-16T13:11:19.288Z,1.77
2022-09-16T13:13:50.263Z,1.46
2022-09-16T13:14:56.912Z,1.83
2022-09-16T13:16:02.124Z,1.58
2022-09-16T13:17:04.196Z,1.86
2022-09-16T13:18:17.708Z,1.84
2022-09-16T13:19:35.247Z,1.81
2022-09-16T13:20:41.949Z,1.77
2022-09-16T13:21:45.695Z,2.02
2022-09-16T13:23:00.253Z,1.81
2022-09-16T13:24:14.919Z,1.98
2022-09-16T13:25:35.030Z,1.69
2022-09-16T13:26:45.425Z,1.95
2022-09-16T13:28:02.038Z,1.88
2022-09-16T13:29:03.874Z,1.89
2022-09-16T13:30:08.238Z,2.28
2022-09-16T13:31:18.679Z,2.10
2022-09-16T13:32:38.499Z,1.88
2022-09-16T13:34:01.886Z,2.11
2022-09-16T13:35:18.714Z,2.41
2022-09-16T13:36:20.476Z,1.98
2022-09-16T13:37:28.412Z,2.10
2022-09-16T13:38:39.221Z,2.18
2022-09-16T13:39:41.144Z,2.01
2022-09-16T13:41:00.779Z,1.80
2022-09-16T13:42:20.737Z,1.73
2022-09-16T13:43:29.390Z,1.36
2022-09-16T13:44:36.934Z,1.60
2022-09-16T13:45:42.750Z,1.48
2022-09-16T13:46:44.468Z,1.30
2022-09-16T13:47:49.736Z,1.42
2022-09-16T13:49:03.272Z,1.74
2022-09-16T13:50:25.497Z,1.37
2022-09-16T13:51:27.214Z,1.72
2022-09-16T13:52:36.054Z,1.65
2022-09-16T13:53:45.901Z,1.70
2022-09-16T13:56:37.507Z,1.78
2022-09-16T13:57:58.571Z,1.53
2022-09-16T13:59:27.711Z,1.85
2022-09-16T14:00:58.723Z,1.74
2022-09-16T14:02:37.477Z,1.60
2022-09-16T14:03:53.028Z,1.65
2022-09-16T14:05:14.610Z,1.62
2022-09-16T14:06:47.754Z,1.45
2022-09-16T14:08:27.017Z,2.08
2022-09-16T14:09:46.741Z,1.63
2022-09-16T14:11:09.085Z,1.81
2022-09-16T14:12:41.671Z,1.67
2022-09-16T14:14:04.813Z,1.79
2022-09-16T14:15:08.784Z,1.74
2022-09-16T14:16:22.979Z,1.64
2022-09-16T14:17:31.830Z,1.66
2022-09-16T14:18:35.287Z,1.82
2022-09-16T14:19:42.430Z,1.94
2022-09-16T14:21:04.915Z,1.64
2022-09-16T14:22:28.096Z,1.78
2022-09-16T14:23:32.546Z,1.57
2022-09-16T14:24:40.322Z,1.21
2022-09-16T14:25:42.055Z,1.15
2022-09-16T14:26:57.415Z,1.13
2022-09-16T14:28:19.009Z,0.98
2022-09-16T14:29:22.386Z,1.22
2022-09-16T14:30:24.563Z,1.36
2022-09-16T14:31:31.333Z,1.03
2022-09-16T14:32:36.734Z,1.19
2022-09-16T14:33:46.237Z,1.36
2022-09-16T14:34:52.651Z,1.19
2022-09-16T14:35:56.782Z,1.08
2022-09-16T14:36:58.990Z,1.16
2022-09-16T14:38:08.439Z,1.31
2022-09-16T14:39:22.309Z,1.20
2022-09-16T14:40:27.401Z,1.01
2022-09-16T14:41:37.263Z,0.86
2022-09-16T14:42:52.743Z,1.14
2022-09-16T14:44:00.368Z,1.21
2022-09-16T14:45:04.820Z,1.12
2022-09-16T14:46:08.457Z,1.19
2022-09-16T14:47:47.336Z,1.16
2022-09-16T14:48:50.587Z,1.22
2022-09-16T14:49:57.926Z,1.31
2022-09-16T14:51:02.560Z,1.38
2022-09-16T14:52:04.386Z,1.34
2022-09-16T14:53:26.864Z,1.34
2022-09-16T14:54:44.334Z,1.38
2022-09-16T14:55:49.854Z,1.47
2022-09-16T14:57:14.729Z,1.59
2022-09-16T14:58:17.491Z,1.44
2022-09-16T14:59:20.753Z,1.42
2022-09-16T15:00:24.150Z,1.58
2022-09-16T15:01:28.206Z,1.52
2022-09-16T15:02:54.339Z,1.59
2022-09-16T15:04:10.001Z,1.40
2022-09-16T15:05:26.591Z,1.59
2022-09-16T15:06:35.737Z,1.49
2022-09-16T15:07:56.170Z,1.71
2022-09-16T15:09:22.232Z,1.65
2022-09-16T15:10:35.850Z,1.56
2022-09-16T15:11:57.729Z,1.91
2022-09-16T15:13:04.746Z,1.70
2022-09-16T15:14:08.038Z,1.61
2022-09-16T15:15:23.782Z,1.76
2022-09-16T15:16:27.997Z,2.01
2022-09-16T15:17:30.029Z,1.70
2022-09-16T15:18:36.360Z,1.59
2022-09-16T15:19:41.886Z,1.54
2022-09-16T15:20:53.367Z,1.49
2022-09-16T15:21:55.407Z,1.78
2022-09-16T15:22:57.231Z,1.42
2022-09-16T15:24:02.361Z,1.79
2022-09-16T15:25:04.580Z,1.71
2022-09-16T15:26:14.583Z,1.73
2022-09-16T15:27:29.061Z,1.75
2022-09-16T15:28:30.696Z,1.45
2022-09-16T15:29:36.651Z,1.49
2022-09-16T15:30:48.697Z,1.80
2022-09-16T15:31:51.782Z,1.53
2022-09-16T15:32:53.483Z,1.73